Time;durP1;ratioP1;P1;durP2;ratioP2;P2;SDS_P1;SDS_P2;PMS_P1;PMS_P2;Temp;Humidity;BMP_temperature;BMP_pressure;BME280_temperature;BME280_humidity;BME280_pressure;Samples;Min_cycle;Max_cycle;Signal;HPM_P1;HPM_P2
2021/03/24 00:00:12;;;;;;;79.75;40.63;;;;;;;;;;5025919;28;20108;-60
2021/03/24 00:02:38;;;;;;;83.40;40.33;;;;;;;;;;5007537;28;20060;-63
2021/03/24 00:05:10;;;;;;;74.55;38.97;;;;;;;;;;5026595;28;20061;-61
2021/03/24 00:07:36;;;;;;;83.70;42.30;;;;;;;;;;5026821;28;20061;-63
2021/03/24 00:10:03;;;;;;;81.10;40.05;;;;;;;;;;5027449;28;20025;-63
2021/03/24 00:12:29;;;;;;;85.15;42.75;;;;;;;;;;5025129;28;20026;-59
2021/03/24 00:14:55;;;;;;;81.18;36.50;;;;;;;;;;5022813;28;20107;-61
2021/03/24 00:17:21;;;;;;;86.38;43.08;;;;;;;;;;5021310;28;20076;-62
2021/03/24 00:19:47;;;;;;;78.28;42.03;;;;;;;;;;5009343;28;20037;-61
2021/03/24 00:22:13;;;;;;;74.07;40.78;;;;;;;;;;5005798;28;20045;-59
2021/03/24 00:24:39;;;;;;;80.47;41.70;;;;;;;;;;5022648;28;20441;-62
2021/03/24 00:27:05;;;;;;;82.45;41.67;;;;;;;;;;5005224;28;20087;-58
2021/03/24 00:29:31;;;;;;;85.88;41.53;;;;;;;;;;5002081;28;20063;-61
2021/03/24 00:31:57;;;;;;;78.57;41.10;;;;;;;;;;5023348;28;20095;-60
2021/03/24 00:34:23;;;;;;;74.97;44.30;;;;;;;;;;5010662;28;20117;-60
2021/03/24 00:36:49;;;;;;;72.40;39.95;;;;;;;;;;5024880;28;20017;-61
2021/03/24 00:39:17;;;;;;;71.47;38.42;;;;;;;;;;5005770;28;20087;-62
2021/03/24 00:41:43;;;;;;;74.18;38.45;;;;;;;;;;5028636;28;20044;-59
2021/03/24 00:44:09;;;;;;;74.53;41.13;;;;;;;;;;5029812;28;20730;-60
2021/03/24 00:46:35;;;;;;;76.18;39.65;;;;;;;;;;5031464;28;20029;-61
2021/03/24 00:49:01;;;;;;;86.00;43.42;;;;;;;;;;5029596;28;20029;-61
2021/03/24 00:51:27;;;;;;;77.47;44.97;;;;;;;;;;5014072;28;20037;-60
2021/03/24 00:53:53;;;;;;;74.07;41.92;;;;;;;;;;5030824;28;20053;-61
2021/03/24 00:56:19;;;;;;;76.68;40.28;;;;;;;;;;5056619;22;20048;-65
2021/03/24 00:58:45;;;;;;;91.00;43.20;;;;;;;;;;5017089;28;20026;-65
2021/03/24 01:01:11;;;;;;;83.47;42.90;;;;;;;;;;5032169;28;20030;-65
2021/03/24 01:03:37;;;;;;;79.65;43.20;;;;;;;;;;5033490;28;20110;-65
2021/03/24 01:06:04;;;;;;;80.35;40.80;;;;;;;;;;5038987;28;20025;-65
2021/03/24 01:08:30;;;;;;;79.78;40.90;;;;;;;;;;5017306;28;20071;-62
2021/03/24 01:10:57;;;;;;;91.00;43.38;;;;;;;;;;5033523;28;20461;-65
2021/03/24 01:13:24;;;;;;;80.25;41.60;;;;;;;;;;5024159;28;20021;-65
2021/03/24 01:15:50;;;;;;;81.97;40.47;;;;;;;;;;5025346;28;20044;-66
2021/03/24 01:18:16;;;;;;;75.28;39.67;;;;;;;;;;5033478;28;20017;-65
2021/03/24 01:20:43;;;;;;;74.25;38.22;;;;;;;;;;5033578;28;20033;-65
2021/03/24 01:23:09;;;;;;;75.50;40.22;;;;;;;;;;5033331;28;20069;-65
2021/03/24 01:25:35;;;;;;;74.90;38.35;;;;;;;;;;5015932;28;20491;-66
2021/03/24 01:28:03;;;;;;;75.95;42.30;;;;;;;;;;5033010;28;20017;-64
2021/03/24 01:30:30;;;;;;;80.47;42.40;;;;;;;;;;5015595;28;20072;-65
2021/03/24 01:32:57;;;;;;;84.53;41.33;;;;;;;;;;5031221;28;20028;-65
2021/03/24 01:35:23;;;;;;;83.22;43.00;;;;;;;;;;5032955;28;20088;-65
2021/03/24 01:37:50;;;;;;;93.93;43.60;;;;;;;;;;5032247;28;20060;-66
2021/03/24 01:40:30;;;;;;;84.40;41.10;;;;;;;;;;5015441;28;20025;-65
2021/03/24 01:42:57;;;;;;;86.80;43.13;;;;;;;;;;5032411;28;20017;-65
2021/03/24 01:45:23;;;;;;;74.40;39.33;;;;;;;;;;5018180;28;20539;-65
2021/03/24 01:47:49;;;;;;;89.03;42.78;;;;;;;;;;5031466;28;20022;-66
2021/03/24 01:50:17;;;;;;;91.00;43.47;;;;;;;;;;5015283;28;20017;-65
2021/03/24 01:52:43;;;;;;;89.90;43.63;;;;;;;;;;5014956;28;20036;-66
2021/03/24 01:55:10;;;;;;;86.88;41.92;;;;;;;;;;5015039;28;20531;-66
2021/03/24 01:57:38;;;;;;;92.82;43.80;;;;;;;;;;5015144;28;20033;-67
2021/03/24 02:00:06;;;;;;;95.88;44.92;;;;;;;;;;5032987;28;20106;-65
2021/03/24 02:02:36;;;;;;;97.60;44.97;;;;;;;;;;5006751;28;20075;-66
2021/03/24 02:05:02;;;;;;;77.95;40.30;;;;;;;;;;5032579;28;20151;-65
2021/03/24 02:07:34;;;;;;;85.60;46.25;;;;;;;;;;5018797;28;20171;-67
2021/03/24 02:10:09;;;;;;;88.38;43.53;;;;;;;;;;5023058;28;20057;-67
2021/03/24 02:12:41;;;;;;;99.38;43.85;;;;;;;;;;5014466;28;20492;-65
2021/03/24 02:15:10;;;;;;;86.90;42.90;;;;;;;;;;5032465;28;20021;-65
2021/03/24 02:17:40;;;;;;;97.03;47.40;;;;;;;;;;5017577;28;20025;-66
2021/03/24 02:20:06;;;;;;;94.32;46.22;;;;;;;;;;5032473;28;20029;-66
2021/03/24 02:22:37;;;;;;;93.60;47.40;;;;;;;;;;5032341;28;20018;-65
2021/03/24 02:25:03;;;;;;;97.85;45.03;;;;;;;;;;5014644;28;20388;-65
2021/03/24 02:27:52;;;;;;;96.32;47.55;;;;;;;;;;5028478;28;20444;-65
2021/03/24 02:30:18;;;;;;;100.35;47.47;;;;;;;;;;5020007;28;20033;-64
2021/03/24 02:32:46;;;;;;;97.97;47.17;;;;;;;;;;5031701;28;20026;-65
2021/03/24 02:35:17;;;;;;;91.00;46.60;;;;;;;;;;5032076;28;20024;-65
2021/03/24 02:37:43;;;;;;;100.93;49.95;;;;;;;;;;5031889;28;20104;-65
2021/03/24 02:40:11;;;;;;;171.65;86.15;;;;;;;;;;5032361;28;20026;-64
2021/03/24 02:42:38;;;;;;;178.73;92.10;;;;;;;;;;5032070;28;20026;-65
2021/03/24 02:45:06;;;;;;;103.85;52.50;;;;;;;;;;5032334;28;20256;-65
2021/03/24 02:47:32;;;;;;;106.63;48.50;;;;;;;;;;5032336;28;20036;-65
2021/03/24 02:49:58;;;;;;;93.80;45.38;;;;;;;;;;5032279;28;20030;-65
2021/03/24 02:52:24;;;;;;;95.72;45.45;;;;;;;;;;5021784;28;20029;-65
2021/03/24 02:54:50;;;;;;;101.55;48.97;;;;;;;;;;5031797;28;20088;-65
2021/03/24 02:57:16;;;;;;;95.10;46.30;;;;;;;;;;5031904;28;20080;-65
2021/03/24 02:59:42;;;;;;;101.20;48.00;;;;;;;;;;5014681;28;20053;-65
2021/03/24 03:02:13;;;;;;;96.72;49.80;;;;;;;;;;5031781;28;20060;-65
2021/03/24 03:04:45;;;;;;;98.10;49.75;;;;;;;;;;5032293;28;20030;-66
2021/03/24 03:07:21;;;;;;;99.10;44.88;;;;;;;;;;5031917;28;20037;-66
2021/03/24 03:09:50;;;;;;;98.60;46.70;;;;;;;;;;5031521;28;20044;-65
2021/03/24 03:12:19;;;;;;;96.13;47.28;;;;;;;;;;5031317;28;20022;-65
2021/03/24 03:14:50;;;;;;;105.13;49.15;;;;;;;;;;5031350;28;20037;-67
2021/03/24 03:17:21;;;;;;;97.90;47.50;;;;;;;;;;5013705;28;20396;-65
2021/03/24 03:19:57;;;;;;;100.78;48.47;;;;;;;;;;5031728;28;20025;-66
2021/03/24 03:22:24;;;;;;;105.47;55.25;;;;;;;;;;5031686;28;20488;-65
2021/03/24 03:24:58;;;;;;;99.93;49.25;;;;;;;;;;5013510;28;20029;-67
2021/03/24 03:27:25;;;;;;;96.45;46.55;;;;;;;;;;5014115;28;20029;-64
2021/03/24 03:29:54;;;;;;;99.95;49.03;;;;;;;;;;5028461;28;20025;-65
2021/03/24 03:32:21;;;;;;;101.30;48.50;;;;;;;;;;5031425;28;20017;-65
2021/03/24 03:34:50;;;;;;;100.22;46.25;;;;;;;;;;5031413;28;20508;-65
2021/03/24 03:37:16;;;;;;;102.28;49.10;;;;;;;;;;5018649;28;20018;-66
2021/03/24 03:39:44;;;;;;;102.30;51.33;;;;;;;;;;5016583;28;20082;-67
2021/03/24 03:42:10;;;;;;;106.70;55.17;;;;;;;;;;5015726;28;20025;-66
2021/03/24 03:44:36;;;;;;;99.70;50.97;;;;;;;;;;5030993;28;20029;-67
2021/03/24 03:47:05;;;;;;;107.22;50.80;;;;;;;;;;5013617;28;20040;-65
2021/03/24 03:49:31;;;;;;;105.10;53.67;;;;;;;;;;5031244;28;20025;-65
2021/03/24 03:52:09;;;;;;;112.43;49.63;;;;;;;;;;5031030;28;20021;-65
2021/03/24 03:54:36;;;;;;;95.63;48.80;;;;;;;;;;5017962;28;20113;-65
2021/03/24 03:57:11;;;;;;;116.55;52.63;;;;;;;;;;5030984;28;20026;-64
2021/03/24 03:59:55;;;;;;;95.75;47.78;;;;;;;;;;5031257;28;20037;-66
2021/03/24 04:02:26;;;;;;;93.45;48.67;;;;;;;;;;5030525;28;20030;-66
2021/03/24 04:04:56;;;;;;;101.70;50.67;;;;;;;;;;5030991;28;20141;-65
2021/03/24 04:07:27;;;;;;;95.43;50.42;;;;;;;;;;5030810;28;20029;-66
2021/03/24 04:09:56;;;;;;;96.50;48.00;;;;;;;;;;5031001;28;20026;-66
2021/03/24 04:12:24;;;;;;;98.90;48.70;;;;;;;;;;5030814;28;20026;-65
2021/03/24 04:14:51;;;;;;;96.90;50.53;;;;;;;;;;5030871;28;20524;-66
2021/03/24 04:17:19;;;;;;;94.00;47.05;;;;;;;;;;5023836;28;20029;-68
2021/03/24 04:19:47;;;;;;;95.10;48.10;;;;;;;;;;5030495;28;20025;-68
2021/03/24 04:22:15;;;;;;;100.03;49.25;;;;;;;;;;5012782;28;20033;-67
2021/03/24 04:24:46;;;;;;;89.45;42.90;;;;;;;;;;5030765;28;20057;-68
2021/03/24 04:27:13;;;;;;;86.18;47.83;;;;;;;;;;5030607;28;20025;-67
2021/03/24 04:29:45;;;;;;;83.25;44.83;;;;;;;;;;5030641;28;20080;-66
2021/03/24 04:32:11;;;;;;;86.05;43.55;;;;;;;;;;5030105;28;20032;-66
2021/03/24 04:34:38;;;;;;;80.22;45.67;;;;;;;;;;5017847;28;20025;-67
2021/03/24 04:37:07;;;;;;;94.93;50.72;;;;;;;;;;5033983;28;20105;-67
2021/03/24 04:39:39;;;;;;;86.10;44.95;;;;;;;;;;5017295;28;20057;-67
2021/03/24 04:42:09;;;;;;;84.53;43.72;;;;;;;;;;4996617;28;20584;-68
2021/03/24 04:44:37;;;;;;;82.85;45.20;;;;;;;;;;4997035;28;20062;-67
2021/03/24 04:47:13;;;;;;;84.72;42.95;;;;;;;;;;5030440;28;20049;-67
2021/03/24 04:49:52;;;;;;;84.95;46.83;;;;;;;;;;5034100;28;20022;-66
2021/03/24 04:52:19;;;;;;;80.47;45.10;;;;;;;;;;5016283;28;20480;-67
2021/03/24 04:54:45;;;;;;;90.40;47.80;;;;;;;;;;5034150;28;20496;-67
2021/03/24 04:57:17;;;;;;;85.32;46.65;;;;;;;;;;5017348;28;20021;-67
2021/03/24 04:59:56;;;;;;;85.15;43.50;;;;;;;;;;5034233;28;20396;-66
2021/03/24 05:02:28;;;;;;;82.82;43.17;;;;;;;;;;5033568;28;20484;-66
2021/03/24 05:05:12;;;;;;;83.15;42.88;;;;;;;;;;5033737;28;20036;-66
2021/03/24 05:07:41;;;;;;;75.18;41.65;;;;;;;;;;5017343;28;20134;-67
2021/03/24 05:10:06;;;;;;;;;;;;;;;;;;5034141;28;20583;-67
2021/03/24 05:12:34;;;;;;;71.38;39.67;;;;;;;;;;5016227;28;19909;-66
2021/03/24 05:15:21;;;;;;;84.63;43.97;;;;;;;;;;5033790;28;20063;-65
2021/03/24 05:17:47;;;;;;;78.55;43.33;;;;;;;;;;5033479;28;20111;-66
2021/03/24 05:20:23;;;;;;;80.57;42.67;;;;;;;;;;5015955;28;20528;-67
2021/03/24 05:22:49;;;;;;;80.05;42.85;;;;;;;;;;5033062;28;20389;-64
2021/03/24 05:25:34;;;;;;;75.88;41.28;;;;;;;;;;5033654;28;20033;-65
2021/03/24 05:28:03;;;;;;;83.63;43.45;;;;;;;;;;5015592;28;20032;-68
2021/03/24 05:30:31;;;;;;;83.35;43.65;;;;;;;;;;5033262;28;20021;-68
2021/03/24 05:33:20;;;;;;;78.53;42.28;;;;;;;;;;5014702;28;20037;-67
2021/03/24 05:35:46;;;;;;;79.45;41.00;;;;;;;;;;5005497;28;20021;-67
2021/03/24 05:38:18;;;;;;;72.18;39.78;;;;;;;;;;5033481;28;20097;-68
2021/03/24 05:41:07;;;;;;;74.47;41.70;;;;;;;;;;5015394;28;20330;-68
2021/03/24 05:43:51;;;;;;;72.70;39.13;;;;;;;;;;5015240;28;20025;-67
2021/03/24 05:46:46;;;;;;;80.85;40.55;;;;;;;;;;5032796;28;20514;-67
2021/03/24 05:49:14;;;;;;;73.00;42.10;;;;;;;;;;4962467;28;20633;-66
2021/03/24 05:51:44;;;;;;;78.95;40.38;;;;;;;;;;5033111;28;20021;-66
2021/03/24 05:54:15;;;;;;;73.22;40.03;;;;;;;;;;5015033;28;20026;-67
2021/03/24 05:57:00;;;;;;;77.80;41.67;;;;;;;;;;5032823;28;20112;-66
2021/03/24 05:59:29;;;;;;;72.32;39.80;;;;;;;;;;5033598;28;20029;-66
2021/03/24 06:02:02;;;;;;;81.90;44.10;;;;;;;;;;5016069;28;20029;-67
2021/03/24 06:04:47;;;;;;;70.55;39.60;;;;;;;;;;5033710;28;20033;-65
2021/03/24 06:07:19;;;;;;;72.95;38.83;;;;;;;;;;5015375;28;20056;-64
2021/03/24 06:09:51;;;;;;;73.15;38.47;;;;;;;;;;5033106;28;20035;-65
2021/03/24 06:12:26;;;;;;;71.53;41.58;;;;;;;;;;5014953;28;20026;-65
2021/03/24 06:15:07;;;;;;;71.88;40.42;;;;;;;;;;5032924;28;20067;-65
2021/03/24 06:17:40;;;;;;;65.80;36.83;;;;;;;;;;5032936;28;20552;-65
2021/03/24 06:20:24;;;;;;;61.25;36.65;;;;;;;;;;5032535;28;20022;-67
2021/03/24 06:22:57;;;;;;;64.93;38.13;;;;;;;;;;5014039;28;20021;-65
2021/03/24 06:25:32;;;;;;;63.97;35.55;;;;;;;;;;5032287;28;20110;-66
2021/03/24 06:28:22;;;;;;;62.03;36.10;;;;;;;;;;5014493;28;20029;-65
2021/03/24 06:30:57;;;;;;;59.28;33.75;;;;;;;;;;5004168;28;20090;-66
2021/03/24 06:33:30;;;;;;;64.63;37.38;;;;;;;;;;5014446;28;20032;-66
2021/03/24 06:36:05;;;;;;;58.50;33.17;;;;;;;;;;5032628;28;20052;-66
2021/03/24 06:38:45;;;;;;;58.85;33.95;;;;;;;;;;5014303;28;20021;-67
2021/03/24 06:41:11;;;;;;;58.42;37.13;;;;;;;;;;5032236;28;20036;-66
2021/03/24 06:43:37;;;;;;;63.40;36.38;;;;;;;;;;5014001;28;20026;-67
2021/03/24 06:46:25;;;;;;;65.60;36.17;;;;;;;;;;5014569;28;20477;-67
2021/03/24 06:48:56;;;;;;;63.97;36.05;;;;;;;;;;5014393;28;20083;-66
2021/03/24 06:51:41;;;;;;;57.28;35.13;;;;;;;;;;5032967;28;20021;-64
2021/03/24 06:54:16;;;;;;;58.10;34.10;;;;;;;;;;5014911;28;20491;-67
2021/03/24 06:56:52;;;;;;;62.50;36.97;;;;;;;;;;5047409;22;20243;-61
2021/03/24 06:59:21;;;;;;;56.13;32.88;;;;;;;;;;4994484;28;20116;-63
2021/03/24 07:01:47;;;;;;;55.65;34.35;;;;;;;;;;5013273;28;20030;-63
2021/03/24 07:04:22;;;;;;;51.25;31.35;;;;;;;;;;5013160;28;20022;-64
2021/03/24 07:07:00;;;;;;;58.45;33.15;;;;;;;;;;5012863;28;20030;-65
2021/03/24 07:09:37;;;;;;;57.55;31.92;;;;;;;;;;5006093;28;20056;-62
2021/03/24 07:12:15;;;;;;;56.83;32.37;;;;;;;;;;5000243;28;20021;-63
2021/03/24 07:14:49;;;;;;;55.30;29.92;;;;;;;;;;5012196;28;20611;-60
2021/03/24 07:17:31;;;;;;;56.65;30.55;;;;;;;;;;4994439;28;20060;-65
2021/03/24 07:20:16;;;;;;;54.78;34.67;;;;;;;;;;5007632;28;20018;-60
2021/03/24 07:23:00;;;;;;;47.22;29.15;;;;;;;;;;5011116;28;20030;-62
2021/03/24 07:25:36;;;;;;;48.80;29.08;;;;;;;;;;4995908;28;20032;-63
2021/03/24 07:28:23;;;;;;;47.95;28.38;;;;;;;;;;5012519;28;20025;-61
2021/03/24 07:31:07;;;;;;;51.15;29.52;;;;;;;;;;4994746;28;20038;-62
2021/03/24 07:33:38;;;;;;;48.90;30.08;;;;;;;;;;5012184;28;20026;-62
2021/03/24 07:36:23;;;;;;;50.33;28.67;;;;;;;;;;5012664;28;20021;-62
2021/03/24 07:39:02;;;;;;;48.63;29.17;;;;;;;;;;5012282;28;20061;-63
2021/03/24 07:41:37;;;;;;;50.40;32.88;;;;;;;;;;4994716;28;20057;-61
2021/03/24 07:44:22;;;;;;;46.40;31.55;;;;;;;;;;5012195;28;20034;-64
2021/03/24 07:46:54;;;;;;;44.53;28.40;;;;;;;;;;5012112;28;20405;-63
2021/03/24 07:49:19;;;;;;;43.85;25.17;;;;;;;;;;5012102;28;20033;-64
2021/03/24 07:51:46;;;;;;;49.78;30.45;;;;;;;;;;5011920;28;20030;-64
2021/03/24 07:54:16;;;;;;;47.70;27.02;;;;;;;;;;5009745;28;20454;-64
2021/03/24 07:56:53;;;;;;;44.55;28.50;;;;;;;;;;5010411;28;20022;-62
2021/03/24 07:59:22;;;;;;;42.80;28.10;;;;;;;;;;5010944;28;20116;-63
2021/03/24 08:02:04;;;;;;;45.20;30.08;;;;;;;;;;5010908;28;20500;-64
2021/03/24 08:04:33;;;;;;;49.45;28.98;;;;;;;;;;5010981;28;20113;-62
2021/03/24 08:24:15;;;;;;;48.47;31.48;;;;;;;;;;5088872;27;20395;-64
2021/03/24 08:26:49;;;;;;;46.53;29.38;;;;;;;;;;5089371;28;20499;-64
2021/03/24 08:29:21;;;;;;;43.58;30.65;;;;;;;;;;5087716;28;20088;-63
2021/03/24 08:31:47;;;;;;;47.10;29.73;;;;;;;;;;5088772;28;20024;-65
2021/03/24 08:34:31;;;;;;;47.70;30.92;;;;;;;;;;5088642;28;20027;-65
2021/03/24 08:37:16;;;;;;;50.72;32.58;;;;;;;;;;5116204;22;20075;-63
2021/03/24 08:39:53;;;;;;;48.40;29.92;;;;;;;;;;5074089;28;20029;-63
2021/03/24 08:42:40;;;;;;;47.73;30.27;;;;;;;;;;5067406;28;20040;-63
2021/03/24 08:45:25;;;;;;;52.63;32.03;;;;;;;;;;5066487;28;20271;-60
2021/03/24 08:47:53;;;;;;;53.15;31.17;;;;;;;;;;5053744;28;20031;-63
2021/03/24 08:50:28;;;;;;;51.75;33.05;;;;;;;;;;5068175;28;20104;-62
2021/03/24 08:53:03;;;;;;;48.17;30.75;;;;;;;;;;5066400;28;20127;-58
2021/03/24 08:55:49;;;;;;;49.38;31.50;;;;;;;;;;5066452;28;20074;-63
2021/03/24 08:58:15;;;;;;;45.75;31.38;;;;;;;;;;5066661;28;20021;-63
2021/03/24 09:01:00;;;;;;;47.85;31.83;;;;;;;;;;5067248;28;20021;-63
2021/03/24 09:03:40;;;;;;;53.75;31.65;;;;;;;;;;5067925;28;20032;-61
2021/03/24 09:06:12;;;;;;;52.03;34.33;;;;;;;;;;5066676;28;20059;-64
2021/03/24 09:08:53;;;;;;;55.38;34.38;;;;;;;;;;5066760;28;20594;-63
2021/03/24 09:11:31;;;;;;;54.15;35.92;;;;;;;;;;5067173;28;20033;-62
2021/03/24 09:14:24;;;;;;;50.53;34.42;;;;;;;;;;5067495;28;20021;-63
2021/03/24 09:17:06;;;;;;;50.80;31.98;;;;;;;;;;5067907;28;20497;-61
2021/03/24 09:19:55;;;;;;;53.38;34.25;;;;;;;;;;5066518;28;20121;-62
2021/03/24 09:22:39;;;;;;;55.55;36.33;;;;;;;;;;5066468;28;20024;-59
2021/03/24 09:25:19;;;;;;;53.33;32.35;;;;;;;;;;5054061;28;20033;-61
2021/03/24 09:28:03;;;;;;;53.85;35.35;;;;;;;;;;5053074;28;20025;-62
2021/03/24 09:30:38;;;;;;;52.25;36.30;;;;;;;;;;5052749;28;20029;-63
2021/03/24 09:33:04;;;;;;;51.80;35.38;;;;;;;;;;5053045;28;20029;-61
2021/03/24 09:35:30;;;;;;;52.63;35.42;;;;;;;;;;5052565;28;20020;-60
2021/03/24 09:38:02;;;;;;;52.90;37.35;;;;;;;;;;5053011;28;20608;-59
2021/03/24 09:40:40;;;;;;;58.50;38.53;;;;;;;;;;5053992;28;20029;-59
2021/03/24 09:43:16;;;;;;;54.55;36.28;;;;;;;;;;5052475;28;20110;-61
2021/03/24 09:45:43;;;;;;;55.47;37.63;;;;;;;;;;5052929;28;20477;-58
2021/03/24 09:48:12;;;;;;;55.67;38.33;;;;;;;;;;5053554;28;20474;-59
2021/03/24 09:50:43;;;;;;;58.92;38.42;;;;;;;;;;5052482;28;20028;-58
2021/03/24 09:53:09;;;;;;;53.70;39.53;;;;;;;;;;5053592;28;20074;-64
2021/03/24 09:55:40;;;;;;;55.47;38.40;;;;;;;;;;5052318;28;20092;-64
2021/03/24 09:58:09;;;;;;;54.47;38.78;;;;;;;;;;5053719;28;20032;-61
2021/03/24 10:00:37;;;;;;;60.03;38.70;;;;;;;;;;5051838;28;20063;-61
2021/03/24 10:03:15;;;;;;;59.92;40.95;;;;;;;;;;5052538;28;20025;-59
2021/03/24 10:05:47;;;;;;;54.53;39.00;;;;;;;;;;5053375;28;20032;-60
2021/03/24 10:08:17;;;;;;;58.47;40.97;;;;;;;;;;5053790;28;20025;-61
2021/03/24 10:10:44;;;;;;;56.83;39.70;;;;;;;;;;5052830;28;20028;-61
2021/03/24 10:13:19;;;;;;;57.30;40.63;;;;;;;;;;5053559;28;20028;-63
2021/03/24 10:15:48;;;;;;;58.50;39.78;;;;;;;;;;5051506;28;20393;-61
2021/03/24 10:18:31;;;;;;;58.25;41.72;;;;;;;;;;5053387;28;20524;-63
2021/03/24 10:21:08;;;;;;;57.15;41.33;;;;;;;;;;5052279;28;20029;-59
2021/03/24 10:23:40;;;;;;;60.00;40.33;;;;;;;;;;5053258;28;20111;-62
2021/03/24 10:26:09;;;;;;;57.95;39.08;;;;;;;;;;5053424;28;20040;-62
2021/03/24 10:28:54;;;;;;;55.72;39.00;;;;;;;;;;5053216;28;20025;-61
2021/03/24 10:31:32;;;;;;;55.60;39.30;;;;;;;;;;5053113;28;20035;-62
2021/03/24 10:34:09;;;;;;;62.33;44.22;;;;;;;;;;5051420;28;20108;-61
2021/03/24 10:36:35;;;;;;;54.33;40.80;;;;;;;;;;5050846;28;20420;-62
2021/03/24 10:39:04;;;;;;;54.53;40.63;;;;;;;;;;5053756;28;20047;-61
2021/03/24 10:41:43;;;;;;;56.85;40.42;;;;;;;;;;5050388;28;20025;-61
2021/03/24 10:44:22;;;;;;;52.13;39.72;;;;;;;;;;5052622;28;20486;-62
2021/03/24 10:47:20;;;;;;;51.88;38.60;;;7.00;99.90;;;;;;5053128;28;20091;-63
2021/03/24 10:49:59;;;;;;;53.95;39.67;;;12.50;99.90;;;;;;5051852;28;20028;-63
2021/03/24 10:52:37;;;;;;;55.17;39.05;;;12.40;99.90;;;;;;5052378;28;20029;-64
2021/03/24 10:55:16;;;;;;;59.97;40.83;;;12.50;99.90;;;;;;5053163;28;20013;-62
2021/03/24 10:58:13;;;;;;;55.97;41.00;;;12.40;99.90;;;;;;5051761;28;20048;-60
2021/03/24 11:00:44;;;;;;;54.55;39.60;;;;;;;;;;5028001;28;20032;-60
2021/03/24 11:03:20;;;;;;;55.80;39.70;;;;;;;;;;5051814;28;20128;-63
2021/03/24 11:05:54;;;;;;;55.10;37.65;;;;;;;;;;5052768;28;20481;-62
2021/03/24 11:08:35;;;;;;;57.08;41.80;;;;;;;;;;5051280;28;20079;-63
2021/03/24 11:11:22;;;;;;;54.78;41.17;;;;;;;;;;5051148;28;20108;-62
2021/03/24 11:13:55;;;;;;;58.23;40.03;;;;;;;;;;5052095;28;20036;-62
2021/03/24 11:16:26;;;;;;;54.88;39.25;;;;;;;;;;5051014;28;20029;-62
2021/03/24 11:18:55;;;;;;;53.75;38.60;;;;;;;;;;5052559;28;20031;-61
2021/03/24 11:21:23;;;;;;;55.15;40.55;;;;;;;;;;5052771;28;20025;-61
2021/03/24 11:24:00;;;;;;;55.35;39.53;;;;;;;;;;5052318;28;20017;-60
2021/03/24 11:26:30;;;;;;;52.03;39.15;;;;;;;;;;5050997;28;20396;-60
2021/03/24 11:28:57;;;;;;;52.00;41.40;;;;;;;;;;5052613;28;20021;-62
2021/03/24 11:31:43;;;;;;;50.60;39.47;;;;;;;;;;5051216;28;20028;-60
2021/03/24 11:34:11;;;;;;;48.83;38.90;;;;;;;;;;5052230;28;20025;-65
2021/03/24 11:36:42;;;;;;;55.28;43.65;;;;;;;;;;5050917;28;20556;-62
2021/03/24 11:39:20;;;;;;;55.10;42.70;;;;;;;;;;5052298;28;20021;-62
2021/03/24 11:41:46;;;;;;;58.60;41.72;;;;;;;;;;5052315;28;20020;-62
2021/03/24 11:44:19;;;;;;;51.28;42.63;;;12.60;99.90;;;;;;5050926;28;20037;-60
2021/03/24 11:46:45;;;;;;;53.47;42.83;;;18.40;92.30;;;;;;5051900;28;20021;-60
2021/03/24 11:49:20;;;;;;;54.25;43.08;;;;;;;;;;5050983;28;20379;-60
2021/03/24 11:51:57;;;;;;;51.45;43.97;;;;;;;;;;5052621;28;20017;-62
2021/03/24 11:54:46;;;;;;;53.03;43.60;;;18.50;91.30;;;;;;5050065;28;20370;-64
2021/03/24 11:57:38;;;;;;;50.90;43.13;;;18.10;90.60;;;;;;5051810;28;20029;-62
2021/03/24 12:00:07;;;;;;;53.85;43.70;;;18.50;89.30;;;;;;5052106;28;20029;-63
2021/03/24 12:02:51;;;;;;;49.38;40.83;;;18.20;88.20;;;;;;5051520;28;20029;-60
2021/03/24 12:05:55;;;;;;;55.97;40.60;;;18.50;87.10;;;;;;5050389;28;20033;-62
2021/03/24 12:08:39;;;;;;;53.03;44.15;;;18.50;86.50;;;;;;4989892;28;20088;-63
2021/03/24 12:11:23;;;;;;;53.42;40.28;;;18.40;85.90;;;;;;4989843;28;20104;-62
2021/03/24 12:13:49;;;;;;;52.53;41.05;;;18.70;83.00;;;;;;5033444;28;20037;-63
2021/03/24 12:16:19;;;;;;;54.10;41.03;;;18.40;81.70;;;;;;5050325;28;20025;-63
2021/03/24 12:18:51;;;;;;;51.70;40.75;;;18.10;82.90;;;;;;5036150;28;20412;-60
2021/03/24 12:21:30;;;;;;;50.05;39.67;;;18.10;81.10;;;;;;5030298;28;20113;-63
2021/03/24 12:24:05;;;;;;;51.88;39.17;;;;;;;;;;5029893;28;20032;-62
2021/03/24 12:26:38;;;;;;;50.58;39.28;;;;;;;;;;5031788;28;20025;-62
2021/03/24 12:29:06;;;;;;;51.30;38.97;;;;;;;;;;5031362;28;20513;-62
2021/03/24 12:31:32;;;;;;;51.10;40.42;;;18.10;79.90;;;;;;5030007;28;20022;-64
2021/03/24 12:34:01;;;;;;;49.13;38.75;;;19.40;77.90;;;;;;5031480;28;20034;-56
2021/03/24 12:36:29;;;;;;;50.60;40.47;;;19.20;75.60;;;;;;5029855;28;20030;-61
2021/03/24 12:39:21;;;;;;;51.75;40.70;;;18.90;75.60;;;;;;5030072;28;20026;-61
2021/03/24 12:41:46;;;;;;;50.83;40.70;;;18.90;75.30;;;;;;5030038;28;20040;-61
2021/03/24 12:44:15;;;;;;;56.03;43.30;;;18.70;74.80;;;;;;5031235;28;20033;-61
2021/03/24 12:47:05;;;;;;;54.40;41.08;;;18.50;75.60;;;;;;5031292;28;20028;-61
2021/03/24 12:49:37;;;;;;;55.28;40.78;;;18.90;75.00;;;;;;5031421;28;20021;-63
2021/03/24 12:52:11;;;;;;;51.13;40.63;;;18.90;74.40;;;;;;5030012;28;20501;-63
2021/03/24 12:54:37;;;;;;;49.78;39.80;;;19.00;73.60;;;;;;5032085;28;20179;-61
2021/03/24 12:57:17;;;;;;;46.08;36.05;;;19.50;72.10;;;;;;5032044;28;20097;-62
2021/03/24 13:00:02;;;;;;;51.63;38.00;;;19.60;69.60;;;;;;5034429;28;20026;-62
2021/03/24 13:02:36;;;;;;;51.03;38.28;;;19.10;69.50;;;;;;5035945;28;20032;-60
2021/03/24 13:05:02;;;;;;;51.05;37.67;;;;;;;;;;5035900;28;20025;-61
2021/03/24 13:07:47;;;;;;;49.90;38.85;;;19.40;69.70;;;;;;5034136;28;20041;-60
2021/03/24 13:10:34;;;;;;;47.15;38.33;;;19.90;68.40;;;;;;5035649;28;20140;-57
2021/03/24 13:13:14;;;;;;;44.38;35.13;;;20.10;70.70;;;;;;5035236;28;20026;-60
2021/03/24 13:15:52;;;;;;;50.22;37.83;;;19.90;68.30;;;;;;5044462;28;20029;-61
2021/03/24 13:18:42;;;;;;;46.30;35.58;;;19.80;68.10;;;;;;5054452;28;20021;-56
2021/03/24 13:21:28;;;;;;;50.20;38.45;;;19.90;67.00;;;;;;5053941;28;20065;-58
2021/03/24 13:24:21;;;;;;;43.60;33.80;;;19.60;68.00;;;;;;5054425;28;20021;-61
2021/03/24 13:26:48;;;;;;;43.42;33.47;;;20.20;66.80;;;;;;5054235;28;20429;-56
2021/03/24 13:29:52;;;;;;;44.95;34.50;;;19.90;65.80;;;;;;5052864;28;20025;-61
2021/03/24 13:32:26;;;;;;;46.15;37.92;;;19.50;67.90;;;;;;5053989;28;20045;-59
2021/03/24 13:35:23;;;;;;;43.63;33.97;;;19.60;68.30;;;;;;5054143;28;20020;-60
2021/03/24 13:37:49;;;;;;;46.72;37.60;;;20.00;67.90;;;;;;5051580;28;20033;-56
2021/03/24 13:40:15;;;;;;;44.97;36.60;;;;;;;;;;5052651;28;20036;-56
2021/03/24 13:42:43;;;;;;;43.58;35.58;;;;;;;;;;5052454;28;20555;-58
2021/03/24 13:45:31;;;;;;;48.85;37.38;;;20.90;66.90;;;;;;5051977;28;20025;-59
2021/03/24 13:48:14;;;;;;;45.15;36.60;;;20.50;65.50;;;;;;5053982;28;20021;-59
2021/03/24 13:51:01;;;;;;;47.28;35.95;;;20.60;65.00;;;;;;5053251;28;20024;-61
2021/03/24 13:53:47;;;;;;;45.00;37.35;;;;;;;;;;5052148;28;20037;-61
2021/03/24 13:56:46;;;;;;;44.53;37.30;;;21.00;64.80;;;;;;5046146;28;20048;-58
2021/03/24 13:59:23;;;;;;;42.20;37.03;;;;;;;;;;5053533;28;20029;-62
2021/03/24 14:02:11;;;;;;;43.83;36.25;;;21.50;63.20;;;;;;5052019;28;20028;-61
2021/03/24 14:05:07;;;;;;;44.97;37.50;;;20.40;63.60;;;;;;5051602;28;20414;-61
2021/03/24 14:07:51;;;;;;;40.28;31.60;;;20.50;65.20;;;;;;5052751;28;20494;-60
2021/03/24 14:10:26;;;;;;;44.45;34.45;;;20.40;63.60;;;;;;5053390;28;20048;-60
2021/03/24 14:13:22;;;;;;;42.53;34.90;;;19.70;64.60;;;;;;5053435;28;20036;-62
2021/03/24 14:15:55;;;;;;;40.25;32.28;;;;;;;;;;5051817;28;20057;-62
2021/03/24 14:18:52;;;;;;;38.78;32.53;;;20.00;64.80;;;;;;5051942;28;20116;-61
2021/03/24 14:21:40;;;;;;;37.72;30.60;;;20.60;62.80;;;;;;5052683;28;20103;-60
2021/03/24 14:24:18;;;;;;;37.67;32.13;;;20.30;61.20;;;;;;5052920;28;20028;-62
2021/03/24 14:26:59;;;;;;;38.63;30.48;;;21.10;61.30;;;;;;5052955;28;20501;-61
2021/03/24 14:29:37;;;;;;;39.22;31.88;;;;;;;;;;5051589;28;20120;-60
2021/03/24 14:32:03;;;;;;;37.38;31.77;;;;;;;;;;5052977;28;20025;-62
2021/03/24 14:34:34;;;;;;;41.97;33.38;;;;;;;;;;5052425;28;20029;-63
2021/03/24 14:37:00;;;;;;;39.50;31.70;;;;;;;;;;5096690;22;20541;-65
2021/03/24 14:40:03;;;;;;;36.28;30.90;;;21.60;60.10;;;;;;5051326;28;20466;-65
2021/03/24 14:42:49;;;;;;;37.42;31.33;;;20.40;62.30;;;;;;5052074;28;20021;-65
2021/03/24 14:45:24;;;;;;;39.42;29.60;;;20.50;60.60;;;;;;5051784;28;20053;-66
2021/03/24 14:48:16;;;;;;;36.55;31.17;;;20.60;61.00;;;;;;5050615;28;20031;-65